Nearby METAR Reports

 

KSJC - San Jose, California, USA
Distance from station: NØ 14km
Oppdatert: 28/11/2021 10:53
Klart
Klart
 Vind fra SØ
Vind: SØ 7 km/h
Temperatur: 9°C
Wind Chill: 8°C
Duggpunkt: 6°C
Fuktighet: 82%
Barometer: 1021.7 hPa
Clouds: Klart
Visibility: 16 km
2021/11/28 09:53 KSJC 280953Z AUTO 14004KT 10SM CLR 09/06 A3017 RMK AO2 SLP217 T00890056
KNUQ - Moffett Nas/Mtn, California, USA
Distance from station: N 14km
Oppdatert: 28/11/2021 11:35
Klart
Klart
 Vind fra calm
Vind: Stille
Temperatur: 10°C
Duggpunkt: 7°C
Fuktighet: 82%
Barometer: 1022 hPa
Clouds: Klart
Visibility: 16 km
2021/11/28 10:35 KNUQ 281035Z AUTO 00000KT 10SM CLR 10/07 A3018 RMK AO2
 
KPAO - Palo Alto, California, USA
Distance from station: NNV 23km
Oppdatert: 28/11/2021 05:47
NOT Current
Klart
Klart
 Vind fra SV
Vind: SV 7 km/h
Temperatur: 13°C
Duggpunkt: 7°C
Fuktighet: 67%
Barometer: 1021.3 hPa
Clouds: Klart
Visibility: 16 km
2021/11/28 04:47 KPAO 280447Z 22004KT 10SM SKC 13/07 A3016 RMK LAST
KRHV - San Jose/Reid, California, USA
Distance from station: ØNØ 19km
Oppdatert: 28/11/2021 06:55
NOT Current
Klart
Klart
 Vind fra calm
Vind: Stille
Temperatur: 12°C
Duggpunkt: 6°C
Fuktighet: 67%
Barometer: 1022 hPa
Clouds: Klart
Visibility: 16 km
2021/11/28 05:55 KRHV 280555Z 00000KT 10SM SKC 12/06 A3018 RMK LAST
 
KOAK - Oakland, California, USA
Distance from station: NNV 50km
Oppdatert: 28/11/2021 10:53
Klart
Klart
 Vind fra calm
Vind: Stille
Temperatur: 9°C
Duggpunkt: 7°C
Fuktighet: 87%
Barometer: 1022 hPa
Clouds: Klart
Visibility: 16 km
2021/11/28 09:53 KOAK 280953Z 00000KT 10SM CLR 09/07 A3018 RMK AO2 SLP220 T00940067
KSQL - San Carlos Airpo, California, USA
Distance from station: NV 34km
Oppdatert: 28/11/2021 11:35
Klart
Klart
 Vind fra calm
Vind: Stille
Temperatur: 10°C
Duggpunkt: 7°C
Fuktighet: 82%
Barometer: 1022 hPa
Clouds: Klart
Visibility: 16 km
2021/11/28 10:35 KSQL 281035Z AUTO 00000KT 10SM CLR 10/07 A3018 RMK AO2
 
KSFO - San Francisco, California, USA
Distance from station: NV 49km
Oppdatert: 28/11/2021 10:56
Klart
Klart
 Vind fra calm
Vind: Stille
Temperatur: 11°C
Duggpunkt: 7°C
Fuktighet: 77%
Barometer: 1021.7 hPa
Clouds: Klart
Visibility: 16 km
2021/11/28 09:56 KSFO 280956Z 00000KT 10SM CLR 11/07 A3017 RMK AO2 SLP215 T01110072 $
KE16 - San Martin, California, USA
Distance from station: ØSØ 43km
Oppdatert: 28/11/2021 11:35
Klart
Klart
 Vind fra calm
Vind: Stille
Temperatur: 6°C
Duggpunkt: 5°C
Fuktighet: 93%
Barometer: 1022.7 hPa
Clouds: Klart
Visibility: 16 km
2021/11/28 10:35 KE16 281035Z AUTO 00000KT 10SM CLR 06/05 A3020 RMK AO2 PWINO PNO
 
KWVI - Watsonville, California, USA
Distance from station: SSØ 44km
Oppdatert: 28/11/2021 10:53
Klart
Klart
 Vind fra calm
Vind: Stille
Temperatur: 8°C
Duggpunkt: 6°C
Fuktighet: 87%
Barometer: 1021.7 hPa
Clouds: Klart
Visibility: 16 km
2021/11/28 09:53 KWVI 280953Z AUTO 00000KT 10SM CLR 08/06 A3017 RMK AO2 SLP215 T00830061
KHAF - Half Moon Bay, California, USA
Distance from station: VNV 50km
Oppdatert: 28/11/2021 11:35
Klart
Klart
 Vind fra calm
Vind: Stille
Temperatur: 8°C
Duggpunkt: 8°C
Fuktighet: 100%
Barometer: 1021.3 hPa
Clouds: Klart
Visibility: 16 km
2021/11/28 10:35 KHAF 281035Z AUTO 00000KT 10SM CLR 08/08 A3016 RMK AO2
 
KHWD - Hayward, California, USA
Distance from station: N 44km
Oppdatert: 28/11/2021 10:54
Klart
Klart
 Vind fra ØNØ
Vind: ØNØ 6 km/h
Temperatur: 12°C
Duggpunkt: 7°C
Fuktighet: 72%
Barometer: 1021.7 hPa
Clouds: Klart
Visibility: 16 km
2021/11/28 09:54 KHWD 280954Z AUTO 06003KT 10SM CLR 12/07 A3017 RMK AO2 SLP226 T01170067
KLVK - Livermore, California, USA
Distance from station: NNØ 51km
Oppdatert: 28/11/2021 10:53
Klart
Klart
 Vind fra Ø
Vind: Ø 6 km/h
Temperatur: 7°C
Duggpunkt: 5°C
Fuktighet: 87%
Barometer: 1022.4 hPa
Clouds: Klart
Visibility: 16 km
2021/11/28 09:53 KLVK 280953Z AUTO 08003KT 10SM CLR 07/05 A3019 RMK AO2 SLP219 T00720050